sensor_id;sensor_type;location;lat;lon;timestamp;pressure;altitude;pressure_sealevel;temperature;humidity
11468;BME280;5790;42.762;23.430;2024-03-23T00:54:00;74080.56;;;-142.66;70.71
11468;BME280;5790;42.762;23.430;2024-03-23T00:56:26;74100.97;;;-142.66;70.57
11468;BME280;5790;42.762;23.430;2024-03-23T00:58:53;74107.09;;;-142.66;70.03
11468;BME280;5790;42.762;23.430;2024-03-23T01:01:19;74107.09;;;-142.66;70.17
11468;BME280;5790;42.762;23.430;2024-03-23T01:03:47;74100.97;;;-142.66;70.84
11468;BME280;5790;42.762;23.430;2024-03-23T01:06:13;74125.47;;;-142.66;71.92
11468;BME280;5790;42.762;23.430;2024-03-23T01:08:40;74121.38;;;-142.66;72.31
11468;BME280;5790;42.762;23.430;2024-03-23T01:11:07;74103.00;;;-142.66;71.93
11468;BME280;5790;42.762;23.430;2024-03-23T01:13:34;74103.00;;;-142.66;71.21
11468;BME280;5790;42.762;23.430;2024-03-23T01:16:00;74107.09;;;-142.66;71.30
11468;BME280;5790;42.762;23.430;2024-03-23T01:18:27;74115.25;;;-142.66;71.56
11468;BME280;5790;42.762;23.430;2024-03-23T01:20:53;74152.00;;;-142.66;72.42
11468;BME280;5790;42.762;23.430;2024-03-23T01:23:20;74135.69;;;-142.66;71.82
11468;BME280;5790;42.762;23.430;2024-03-23T01:25:51;74123.44;;;-142.66;71.73
11468;BME280;5790;42.762;23.430;2024-03-23T01:28:20;74103.00;;;-142.66;71.07
11468;BME280;5790;42.762;23.430;2024-03-23T01:30:46;74092.81;;;-142.66;70.44
11468;BME280;5790;42.762;23.430;2024-03-23T01:33:14;74076.47;;;-142.66;70.07
11468;BME280;5790;42.762;23.430;2024-03-23T01:35:40;74060.13;;;-142.66;70.01
11468;BME280;5790;42.762;23.430;2024-03-23T01:38:07;74072.38;;;-142.66;69.88
11468;BME280;5790;42.762;23.430;2024-03-23T01:40:33;74076.47;;;-142.66;69.27
11468;BME280;5790;42.762;23.430;2024-03-23T01:43:03;74064.22;;;-142.66;68.95
11468;BME280;5790;42.762;23.430;2024-03-23T01:45:31;74072.38;;;-142.66;68.57
11468;BME280;5790;42.762;23.430;2024-03-23T01:47:58;74158.13;;;-142.66;72.33
11468;BME280;5790;42.762;23.430;2024-03-23T01:50:25;74166.31;;;-142.66;72.45
11468;BME280;5790;42.762;23.430;2024-03-23T01:52:53;74176.50;;;-142.66;72.50
11468;BME280;5790;42.762;23.430;2024-03-23T01:55:19;74162.22;;;-142.66;71.72
11468;BME280;5790;42.762;23.430;2024-03-23T01:57:46;74156.09;;;-142.66;71.71
11468;BME280;5790;42.762;23.430;2024-03-23T02:00:13;74127.50;;;-142.66;71.34
11468;BME280;5790;42.762;23.430;2024-03-23T02:02:43;74123.44;;;-142.66;71.44
11468;BME280;5790;42.762;23.430;2024-03-23T02:05:10;74119.34;;;-142.66;71.20
11468;BME280;5790;42.762;23.430;2024-03-23T02:07:38;74119.34;;;-142.66;71.05
11468;BME280;5790;42.762;23.430;2024-03-23T02:10:06;74121.38;;;-142.66;70.65
11468;BME280;5790;42.762;23.430;2024-03-23T02:12:33;74121.38;;;-142.66;70.81
11468;BME280;5790;42.762;23.430;2024-03-23T02:14:59;74141.81;;;-142.66;71.04
11468;BME280;5790;42.762;23.430;2024-03-23T02:17:26;74133.63;;;-142.66;71.08
11468;BME280;5790;42.762;23.430;2024-03-23T02:19:53;74139.75;;;-142.66;70.86
11468;BME280;5790;42.762;23.430;2024-03-23T02:22:20;74131.59;;;-142.66;70.48
11468;BME280;5790;42.762;23.430;2024-03-23T02:24:48;74127.50;;;-142.66;70.09
11468;BME280;5790;42.762;23.430;2024-03-23T02:27:15;74127.50;;;-142.66;69.49
11468;BME280;5790;42.762;23.430;2024-03-23T02:29:41;74123.44;;;-142.66;69.37
11468;BME280;5790;42.762;23.430;2024-03-23T02:32:07;74149.97;;;-142.66;69.70
11468;BME280;5790;42.762;23.430;2024-03-23T02:34:34;74168.34;;;-142.66;70.99
11468;BME280;5790;42.762;23.430;2024-03-23T02:37:01;74203.06;;;-142.66;72.60
11468;BME280;5790;42.762;23.430;2024-03-23T02:39:28;74215.31;;;-142.66;73.67
11468;BME280;5790;42.762;23.430;2024-03-23T02:41:56;74260.22;;;-142.66;74.95
11468;BME280;5790;42.762;23.430;2024-03-23T02:44:22;74264.31;;;-142.66;75.79
11468;BME280;5790;42.762;23.430;2024-03-23T02:46:49;74256.16;;;-142.66;75.62
11468;BME280;5790;42.762;23.430;2024-03-23T02:49:15;74231.66;;;-142.66;74.93
11468;BME280;5790;42.762;23.430;2024-03-23T02:51:42;74219.41;;;-142.66;74.58
11468;BME280;5790;42.762;23.430;2024-03-23T02:54:10;74227.56;;;-142.66;74.86
11468;BME280;5790;42.762;23.430;2024-03-23T02:56:37;74229.59;;;-142.66;74.58
11468;BME280;5790;42.762;23.430;2024-03-23T02:59:05;74213.28;;;-142.66;74.88
11468;BME280;5790;42.762;23.430;2024-03-23T03:01:32;74205.09;;;-142.66;74.10
11468;BME280;5790;42.762;23.430;2024-03-23T03:03:57;74192.84;;;-142.66;73.75
11468;BME280;5790;42.762;23.430;2024-03-23T03:06:24;74201.03;;;-142.66;73.46
11468;BME280;5790;42.762;23.430;2024-03-23T03:08:51;74205.09;;;-142.66;73.91
11468;BME280;5790;42.762;23.430;2024-03-23T03:11:18;74205.09;;;-142.66;74.04
11468;BME280;5790;42.762;23.430;2024-03-23T03:13:44;74188.75;;;-142.66;73.24
11468;BME280;5790;42.762;23.430;2024-03-23T03:16:12;74188.75;;;-142.66;72.32
11468;BME280;5790;42.762;23.430;2024-03-23T03:18:38;74186.72;;;-142.66;71.66
11468;BME280;5790;42.762;23.430;2024-03-23T03:21:05;74225.53;;;-142.66;71.65
11468;BME280;5790;42.762;23.430;2024-03-23T03:23:36;74241.84;;;-142.66;72.20
11468;BME280;5790;42.762;23.430;2024-03-23T03:26:03;74264.31;;;-142.66;72.50
11468;BME280;5790;42.762;23.430;2024-03-23T03:28:29;74301.06;;;-142.66;73.67
11468;BME280;5790;42.762;23.430;2024-03-23T03:30:56;74301.06;;;-142.66;73.97
11468;BME280;5790;42.762;23.430;2024-03-23T03:33:23;74282.69;;;-142.66;73.90
11468;BME280;5790;42.762;23.430;2024-03-23T03:35:50;74294.94;;;-142.66;73.73
11468;BME280;5790;42.762;23.430;2024-03-23T03:38:18;74280.66;;;-142.66;74.09
11468;BME280;5790;42.762;23.430;2024-03-23T03:40:45;74288.81;;;-142.66;73.61
11468;BME280;5790;42.762;23.430;2024-03-23T03:43:11;74286.78;;;-142.66;73.27
11468;BME280;5790;42.762;23.430;2024-03-23T03:45:38;74250.03;;;-142.66;72.54
11468;BME280;5790;42.762;23.430;2024-03-23T03:48:04;74262.28;;;-142.66;72.66
11468;BME280;5790;42.762;23.430;2024-03-23T03:50:32;74258.19;;;-142.66;72.34
11468;BME280;5790;42.762;23.430;2024-03-23T03:52:58;74270.44;;;-142.66;72.76
11468;BME280;5790;42.762;23.430;2024-03-23T03:55:25;74260.22;;;-142.66;72.43
11468;BME280;5790;42.762;23.430;2024-03-23T03:57:51;74268.41;;;-142.66;72.91
11468;BME280;5790;42.762;23.430;2024-03-23T04:00:18;74264.31;;;-142.66;73.32
11468;BME280;5790;42.762;23.430;2024-03-23T04:02:44;74245.94;;;-142.66;73.05
11468;BME280;5790;42.762;23.430;2024-03-23T04:05:11;74247.97;;;-142.66;72.82
11468;BME280;5790;42.762;23.430;2024-03-23T04:07:38;74264.31;;;-142.66;72.74
11468;BME280;5790;42.762;23.430;2024-03-23T04:10:06;74272.47;;;-142.66;73.34
11468;BME280;5790;42.762;23.430;2024-03-23T04:12:33;74276.56;;;-142.66;72.94
11468;BME280;5790;42.762;23.430;2024-03-23T04:15:00;74274.53;;;-142.66;73.09
11468;BME280;5790;42.762;23.430;2024-03-23T04:17:29;74256.16;;;-142.66;72.93
11468;BME280;5790;42.762;23.430;2024-03-23T04:19:57;74243.91;;;-142.66;72.59
11468;BME280;5790;42.762;23.430;2024-03-23T04:22:23;74243.91;;;-142.66;72.73
11468;BME280;5790;42.762;23.430;2024-03-23T04:24:53;74247.97;;;-142.66;72.55
11468;BME280;5790;42.762;23.430;2024-03-23T04:27:19;74243.91;;;-142.66;72.67
11468;BME280;5790;42.762;23.430;2024-03-23T04:29:47;74243.91;;;-142.66;72.23
11468;BME280;5790;42.762;23.430;2024-03-23T04:32:14;74258.19;;;-142.66;72.79
11468;BME280;5790;42.762;23.430;2024-03-23T04:34:41;74268.41;;;-142.66;73.51
11468;BME280;5790;42.762;23.430;2024-03-23T04:37:07;74268.41;;;-142.66;73.74
11468;BME280;5790;42.762;23.430;2024-03-23T04:39:34;74303.13;;;-142.66;75.46
11468;BME280;5790;42.762;23.430;2024-03-23T04:42:03;74388.88;;;-142.66;77.83
11468;BME280;5790;42.762;23.430;2024-03-23T04:44:31;74382.75;;;-142.66;78.11
11468;BME280;5790;42.762;23.430;2024-03-23T04:46:58;74380.72;;;-142.66;77.95
11468;BME280;5790;42.762;23.430;2024-03-23T04:49:25;74444.00;;;-142.66;80.40
11468;BME280;5790;42.762;23.430;2024-03-23T04:51:51;74450.13;;;-142.66;82.37
11468;BME280;5790;42.762;23.430;2024-03-23T04:54:19;74421.53;;;-142.66;82.51
11468;BME280;5790;42.762;23.430;2024-03-23T04:56:46;74435.84;;;-142.66;83.81
11468;BME280;5790;42.762;23.430;2024-03-23T04:59:14;74474.63;;;-142.66;85.04
11468;BME280;5790;42.762;23.430;2024-03-23T05:01:40;74460.34;;;-142.66;86.01
11468;BME280;5790;42.762;23.430;2024-03-23T05:04:08;74456.25;;;-142.66;86.62
11468;BME280;5790;42.762;23.430;2024-03-23T05:06:34;74480.75;;;-142.66;86.88
11468;BME280;5790;42.762;23.430;2024-03-23T05:09:01;74474.63;;;-142.66;87.17
11468;BME280;5790;42.762;23.430;2024-03-23T05:11:31;74460.34;;;-142.66;87.08
11468;BME280;5790;42.762;23.430;2024-03-23T05:13:58;74464.44;;;-142.66;87.23
11468;BME280;5790;42.762;23.430;2024-03-23T05:16:26;74470.56;;;-142.66;87.57
11468;BME280;5790;42.762;23.430;2024-03-23T05:18:53;74458.31;;;-142.66;87.43
11468;BME280;5790;42.762;23.430;2024-03-23T05:21:19;74448.09;;;-142.66;87.00
11468;BME280;5790;42.762;23.430;2024-03-23T05:23:47;74450.13;;;-142.66;87.27
11468;BME280;5790;42.762;23.430;2024-03-23T05:26:13;74444.00;;;-142.66;87.68
11468;BME280;5790;42.762;23.430;2024-03-23T05:28:40;74423.59;;;-142.66;87.29
11468;BME280;5790;42.762;23.430;2024-03-23T05:31:06;74401.13;;;-142.66;86.92
11468;BME280;5790;42.762;23.430;2024-03-23T05:33:36;74384.78;;;-142.66;86.40
11468;BME280;5790;42.762;23.430;2024-03-23T05:36:04;74382.75;;;-142.66;86.21
11468;BME280;5790;42.762;23.430;2024-03-23T05:38:31;74366.41;;;-142.66;86.34
11468;BME280;5790;42.762;23.430;2024-03-23T05:40:58;74348.03;;;-142.66;86.09
11468;BME280;5790;42.762;23.430;2024-03-23T05:43:26;74348.03;;;-142.66;85.72
11468;BME280;5790;42.762;23.430;2024-03-23T05:45:55;74327.63;;;-142.66;85.68
11468;BME280;5790;42.762;23.430;2024-03-23T05:48:22;74292.91;;;-142.66;84.94
11468;BME280;5790;42.762;23.430;2024-03-23T05:50:50;74276.56;;;-142.66;83.89
11468;BME280;5790;42.762;23.430;2024-03-23T05:53:18;74264.31;;;-142.66;82.92
11468;BME280;5790;42.762;23.430;2024-03-23T05:55:44;74243.91;;;-142.66;82.70
11468;BME280;5790;42.762;23.430;2024-03-23T05:58:11;74211.22;;;-142.66;81.51
11468;BME280;5790;42.762;23.430;2024-03-23T06:00:37;74180.59;;;-142.66;80.29
11468;BME280;5790;42.762;23.430;2024-03-23T06:03:04;74158.13;;;-142.66;79.34
11468;BME280;5790;42.762;23.430;2024-03-23T06:05:30;74164.25;;;-142.66;79.21
11468;BME280;5790;42.762;23.430;2024-03-23T06:07:59;74166.31;;;-142.66;79.34
11468;BME280;5790;42.762;23.430;2024-03-23T06:10:24;74127.50;;;-142.66;79.80
11468;BME280;5790;42.762;23.430;2024-03-23T06:12:52;74105.06;;;-142.66;78.97
11468;BME280;5790;42.762;23.430;2024-03-23T06:15:18;74070.34;;;-142.66;78.81
11468;BME280;5790;42.762;23.430;2024-03-23T06:17:45;74019.28;;;-142.66;78.29
11468;BME280;5790;42.762;23.430;2024-03-23T06:20:11;73988.66;;;-142.66;75.84
11468;BME280;5790;42.762;23.430;2024-03-23T06:22:39;73966.22;;;-142.66;74.83
11468;BME280;5790;42.762;23.430;2024-03-23T06:25:07;73931.50;;;-142.66;73.97
11468;BME280;5790;42.762;23.430;2024-03-23T06:27:34;73925.38;;;-142.66;72.86
11468;BME280;5790;42.762;23.430;2024-03-23T06:30:00;73925.38;;;-142.66;71.84
11468;BME280;5790;42.762;23.430;2024-03-23T06:32:27;73904.97;;;-142.66;71.85
11468;BME280;5790;42.762;23.430;2024-03-23T06:34:54;73911.09;;;-142.66;71.36
11468;BME280;5790;42.762;23.430;2024-03-23T06:37:21;73890.66;;;-142.66;71.13
11468;BME280;5790;42.762;23.430;2024-03-23T06:39:47;73833.50;;;-142.66;70.86
11468;BME280;5790;42.762;23.430;2024-03-23T06:42:16;73809.00;;;-142.66;69.16
11468;BME280;5790;42.762;23.430;2024-03-23T06:44:42;73800.84;;;-142.66;67.37
11468;BME280;5790;42.762;23.430;2024-03-23T06:47:10;73770.22;;;-142.66;66.09
11468;BME280;5790;42.762;23.430;2024-03-23T06:49:36;73794.72;;;-142.66;65.68
11468;BME280;5790;42.762;23.430;2024-03-23T06:52:03;73768.16;;;-142.66;67.39
11468;BME280;5790;42.762;23.430;2024-03-23T06:54:29;73747.75;;;-142.66;65.25
11468;BME280;5790;42.762;23.430;2024-03-23T06:56:56;73719.16;;;-142.66;63.94
11468;BME280;5790;42.762;23.430;2024-03-23T06:59:24;73704.88;;;-142.66;63.56
11468;BME280;5790;42.762;23.430;2024-03-23T07:01:51;73725.28;;;-142.66;64.61
11468;BME280;5790;42.762;23.430;2024-03-23T07:04:17;73713.03;;;-142.66;66.49
11468;BME280;5790;42.762;23.430;2024-03-23T07:06:44;73690.59;;;-142.66;64.06
11468;BME280;5790;42.762;23.430;2024-03-23T07:09:10;73682.44;;;-142.66;62.94
11468;BME280;5790;42.762;23.430;2024-03-23T07:11:38;73686.50;;;-142.66;62.34
11468;BME280;5790;42.762;23.430;2024-03-23T07:14:04;73711.00;;;-142.66;62.97
11468;BME280;5790;42.762;23.430;2024-03-23T07:16:32;73702.84;;;-142.66;63.27
11468;BME280;5790;42.762;23.430;2024-03-23T07:18:58;73704.88;;;-142.66;61.96
11468;BME280;5790;42.762;23.430;2024-03-23T07:21:25;73664.06;;;-142.66;62.01
11468;BME280;5790;42.762;23.430;2024-03-23T07:23:51;73631.38;;;-142.66;60.30
11468;BME280;5790;42.762;23.430;2024-03-23T07:26:18;73619.13;;;-142.66;59.78
11468;BME280;5790;42.762;23.430;2024-03-23T07:28:44;73629.34;;;-142.66;60.36
11468;BME280;5790;42.762;23.430;2024-03-23T07:31:13;73621.19;;;-142.66;59.22
11468;BME280;5790;42.762;23.430;2024-03-23T07:33:44;73594.63;;;-142.66;59.69
11468;BME280;5790;42.762;23.430;2024-03-23T07:36:12;73566.06;;;-142.66;56.86
11468;BME280;5790;42.762;23.430;2024-03-23T07:38:40;73549.72;;;-142.66;56.84
11468;BME280;5790;42.762;23.430;2024-03-23T07:41:09;73515.03;;;-142.66;55.42
11468;BME280;5790;42.762;23.430;2024-03-23T07:43:35;73484.41;;;-142.66;54.14
11468;BME280;5790;42.762;23.430;2024-03-23T07:46:02;73474.19;;;-142.66;54.30
11468;BME280;5790;42.762;23.430;2024-03-23T07:48:30;73472.16;;;-142.66;53.85
11468;BME280;5790;42.762;23.430;2024-03-23T07:51:02;73449.69;;;-142.66;54.46
11468;BME280;5790;42.762;23.430;2024-03-23T07:53:29;73431.31;;;-142.66;51.97
11468;BME280;5790;42.762;23.430;2024-03-23T07:55:57;73423.16;;;-142.66;53.13
11468;BME280;5790;42.762;23.430;2024-03-23T07:58:23;73435.41;;;-142.66;50.14
11468;BME280;5790;42.762;23.430;2024-03-23T08:00:50;73398.66;;;-142.66;49.54
11468;BME280;5790;42.762;23.430;2024-03-23T08:03:16;73370.06;;;-142.66;48.76
11468;BME280;5790;42.762;23.430;2024-03-23T08:05:44;73378.25;;;-142.66;48.96
11468;BME280;5790;42.762;23.430;2024-03-23T08:08:11;73378.25;;;-142.66;48.10
11468;BME280;5790;42.762;23.430;2024-03-23T08:10:47;73376.22;;;-142.66;49.32
11468;BME280;5790;42.762;23.430;2024-03-23T08:13:13;73366.00;;;-142.66;49.79
11468;BME280;5790;42.762;23.430;2024-03-23T08:15:40;73361.91;;;-142.66;52.78
11468;BME280;5790;42.762;23.430;2024-03-23T08:18:06;73357.84;;;-142.66;53.04
11468;BME280;5790;42.762;23.430;2024-03-23T08:20:34;73331.28;;;-142.66;52.12
11468;BME280;5790;42.762;23.430;2024-03-23T08:22:59;73317.00;;;-142.66;55.15
11468;BME280;5790;42.762;23.430;2024-03-23T08:25:30;73314.97;;;-142.66;57.05
11468;BME280;5790;42.762;23.430;2024-03-23T08:27:57;73294.56;;;-142.66;55.46
11468;BME280;5790;42.762;23.430;2024-03-23T08:30:24;73294.56;;;-142.66;52.12
11468;BME280;5790;42.762;23.430;2024-03-23T08:32:50;73288.44;;;-142.66;52.06
11468;BME280;5790;42.762;23.430;2024-03-23T08:35:17;73274.13;;;-142.66;52.48
11468;BME280;5790;42.762;23.430;2024-03-23T08:37:43;73257.81;;;-142.66;53.09
11468;BME280;5790;42.762;23.430;2024-03-23T08:40:11;73255.75;;;-142.66;53.37
11468;BME280;5790;42.762;23.430;2024-03-23T08:42:38;73237.41;;;-142.66;53.09
11468;BME280;5790;42.762;23.430;2024-03-23T08:45:06;73247.59;;;-142.66;49.01
11468;BME280;5790;42.762;23.430;2024-03-23T08:47:34;73245.56;;;-142.66;50.06
11468;BME280;5790;42.762;23.430;2024-03-23T08:50:01;73237.41;;;-142.66;54.48
11468;BME280;5790;42.762;23.430;2024-03-23T08:52:27;73223.09;;;-142.66;55.83
11468;BME280;5790;42.762;23.430;2024-03-23T08:54:55;73216.97;;;-142.66;49.89
11468;BME280;5790;42.762;23.430;2024-03-23T08:57:21;73214.94;;;-142.66;52.36
11468;BME280;5790;42.762;23.430;2024-03-23T08:59:50;73208.81;;;-142.66;51.60
11468;BME280;5790;42.762;23.430;2024-03-23T09:02:16;73192.50;;;-142.66;53.22
11468;BME280;5790;42.762;23.430;2024-03-23T09:04:44;73165.94;;;-142.66;53.30
11468;BME280;5790;42.762;23.430;2024-03-23T09:07:10;73147.56;;;-142.66;54.38
11468;BME280;5790;42.762;23.430;2024-03-23T09:09:38;73129.22;;;-142.66;56.08
11468;BME280;5790;42.762;23.430;2024-03-23T09:12:05;73123.09;;;-142.66;52.05
11468;BME280;5790;42.762;23.430;2024-03-23T09:14:32;73129.22;;;-142.66;48.26
11468;BME280;5790;42.762;23.430;2024-03-23T09:16:59;73119.00;;;-142.66;48.79
11468;BME280;5790;42.762;23.430;2024-03-23T09:19:28;73096.56;;;-142.66;51.09
11468;BME280;5790;42.762;23.430;2024-03-23T09:21:54;73084.31;;;-142.66;48.32
11468;BME280;5790;42.762;23.430;2024-03-23T09:24:21;73090.44;;;-142.66;48.13
11468;BME280;5790;42.762;23.430;2024-03-23T09:26:47;73076.13;;;-142.66;45.56
11468;BME280;5790;42.762;23.430;2024-03-23T09:29:14;73080.22;;;-142.66;46.58
11468;BME280;5790;42.762;23.430;2024-03-23T09:31:40;73072.06;;;-142.66;48.10
11468;BME280;5790;42.762;23.430;2024-03-23T09:34:09;73072.06;;;-142.66;47.18
11468;BME280;5790;42.762;23.430;2024-03-23T09:36:35;73070.00;;;-142.66;49.52
11468;BME280;5790;42.762;23.430;2024-03-23T09:39:02;73067.97;;;-142.66;47.81
11468;BME280;5790;42.762;23.430;2024-03-23T09:41:29;73061.84;;;-142.66;46.41
11468;BME280;5790;42.762;23.430;2024-03-23T09:43:56;73067.97;;;-142.66;46.14
11468;BME280;5790;42.762;23.430;2024-03-23T09:46:22;73063.88;;;-142.66;47.31
11468;BME280;5790;42.762;23.430;2024-03-23T09:48:49;73053.69;;;-142.66;46.65
11468;BME280;5790;42.762;23.430;2024-03-23T09:51:17;73041.44;;;-142.66;44.66
11468;BME280;5790;42.762;23.430;2024-03-23T09:53:44;73029.19;;;-142.66;49.62
11468;BME280;5790;42.762;23.430;2024-03-23T09:56:10;73004.69;;;-142.66;47.87
11468;BME280;5790;42.762;23.430;2024-03-23T09:58:37;72976.13;;;-142.66;48.84
11468;BME280;5790;42.762;23.430;2024-03-23T10:01:04;72970.00;;;-142.66;44.29
11468;BME280;5790;42.762;23.430;2024-03-23T10:03:31;72963.88;;;-142.66;45.61
11468;BME280;5790;42.762;23.430;2024-03-23T10:06:00;72947.53;;;-142.66;45.37
11468;BME280;5790;42.762;23.430;2024-03-23T10:08:30;72937.34;;;-142.66;44.76
11468;BME280;5790;42.762;23.430;2024-03-23T10:10:56;72931.22;;;-142.66;47.79
11468;BME280;5790;42.762;23.430;2024-03-23T10:13:24;72908.75;;;-142.66;45.79
11468;BME280;5790;42.762;23.430;2024-03-23T10:15:55;72894.47;;;-142.66;47.75
11468;BME280;5790;42.762;23.430;2024-03-23T10:18:24;72890.41;;;-142.66;44.39
11468;BME280;5790;42.762;23.430;2024-03-23T10:21:07;72884.28;;;-142.66;43.74
11468;BME280;5790;42.762;23.430;2024-03-23T10:23:38;72876.09;;;-142.66;46.20
11468;BME280;5790;42.762;23.430;2024-03-23T10:26:17;72865.91;;;-142.66;45.90
11468;BME280;5790;42.762;23.430;2024-03-23T10:29:01;72851.63;;;-142.66;41.78
11468;BME280;5790;42.762;23.430;2024-03-23T10:31:34;72839.38;;;-142.66;38.17
11468;BME280;5790;42.762;23.430;2024-03-23T10:34:02;72818.94;;;-142.66;37.40
11468;BME280;5790;42.762;23.430;2024-03-23T10:36:30;72812.84;;;-142.66;38.20
11468;BME280;5790;42.762;23.430;2024-03-23T10:38:58;72792.41;;;-142.66;39.14
11468;BME280;5790;42.762;23.430;2024-03-23T10:41:26;72786.31;;;-142.66;38.01
11468;BME280;5790;42.762;23.430;2024-03-23T10:43:53;72772.00;;;-142.66;36.19
11468;BME280;5790;42.762;23.430;2024-03-23T10:46:22;72765.88;;;-142.66;38.97
11468;BME280;5790;42.762;23.430;2024-03-23T10:48:48;72753.66;;;-142.66;39.59
11468;BME280;5790;42.762;23.430;2024-03-23T10:51:16;72749.56;;;-142.66;36.48
11468;BME280;5790;42.762;23.430;2024-03-23T10:53:42;72737.31;;;-142.66;36.55
11468;BME280;5790;42.762;23.430;2024-03-23T10:56:11;72716.91;;;-142.66;37.28
11468;BME280;5790;42.762;23.430;2024-03-23T10:58:39;72692.41;;;-142.66;36.56
11468;BME280;5790;42.762;23.430;2024-03-23T11:01:07;72676.09;;;-142.66;33.37
11468;BME280;5790;42.762;23.430;2024-03-23T11:03:37;72655.69;;;-142.66;32.12
11468;BME280;5790;42.762;23.430;2024-03-23T11:06:04;72645.47;;;-142.66;31.13
11468;BME280;5790;42.762;23.430;2024-03-23T11:08:34;72653.63;;;-142.66;30.68
11468;BME280;5790;42.762;23.430;2024-03-23T11:11:17;72643.44;;;-142.66;31.20
11468;BME280;5790;42.762;23.430;2024-03-23T11:13:44;72618.94;;;-142.66;32.29
11468;BME280;5790;42.762;23.430;2024-03-23T11:16:22;72602.63;;;-142.66;30.35
11468;BME280;5790;42.762;23.430;2024-03-23T11:18:48;72604.66;;;-142.66;30.12
11468;BME280;5790;42.762;23.430;2024-03-23T11:24:14;72596.50;;;-142.66;31.50
11468;BME280;5790;42.762;23.430;2024-03-23T11:26:43;72594.44;;;-142.66;30.10
11468;BME280;5790;42.762;23.430;2024-03-23T11:29:09;72588.31;;;-142.66;30.67
11468;BME280;5790;42.762;23.430;2024-03-23T11:31:37;72565.88;;;-142.66;30.68
11468;BME280;5790;42.762;23.430;2024-03-23T11:34:04;72557.72;;;-142.66;29.72
11468;BME280;5790;42.762;23.430;2024-03-23T11:36:31;72557.72;;;-142.66;29.75
11468;BME280;5790;42.762;23.430;2024-03-23T11:38:57;72553.63;;;-142.66;29.60
11468;BME280;5790;42.762;23.430;2024-03-23T11:41:25;72547.50;;;-142.66;30.55
11468;BME280;5790;42.762;23.430;2024-03-23T11:43:52;72531.19;;;-142.66;30.31
11468;BME280;5790;42.762;23.430;2024-03-23T11:46:22;72523.03;;;-142.66;30.47
11468;BME280;5790;42.762;23.430;2024-03-23T11:48:49;72523.03;;;-142.66;29.51
11468;BME280;5790;42.762;23.430;2024-03-23T11:51:17;72512.81;;;-142.66;30.06
11468;BME280;5790;42.762;23.430;2024-03-23T11:53:43;72500.56;;;-142.66;30.51
11468;BME280;5790;42.762;23.430;2024-03-23T11:56:10;72486.28;;;-142.66;30.79
11468;BME280;5790;42.762;23.430;2024-03-23T11:58:36;72465.88;;;-142.66;30.96
11468;BME280;5790;42.762;23.430;2024-03-23T12:01:10;72453.63;;;-142.66;30.71
11468;BME280;5790;42.762;23.430;2024-03-23T12:03:36;72459.75;;;-142.66;30.53
11468;BME280;5790;42.762;23.430;2024-03-23T12:06:04;72453.63;;;-142.66;30.45
11468;BME280;5790;42.762;23.430;2024-03-23T12:08:31;72447.50;;;-142.66;29.81
11468;BME280;5790;42.762;23.430;2024-03-23T12:11:06;72455.66;;;-142.66;30.20
11468;BME280;5790;42.762;23.430;2024-03-23T12:13:33;72451.59;;;-142.66;29.57
11468;BME280;5790;42.762;23.430;2024-03-23T12:16:11;72451.59;;;-142.66;30.20
11468;BME280;5790;42.762;23.430;2024-03-23T12:18:38;72449.53;;;-142.66;29.66
11468;BME280;5790;42.762;23.430;2024-03-23T12:21:05;72451.59;;;-142.66;29.64
11468;BME280;5790;42.762;23.430;2024-03-23T12:23:31;72439.34;;;-142.66;30.03
11468;BME280;5790;42.762;23.430;2024-03-23T12:25:59;72443.44;;;-142.66;29.50
11468;BME280;5790;42.762;23.430;2024-03-23T12:28:26;72433.22;;;-142.66;29.75
11468;BME280;5790;42.762;23.430;2024-03-23T12:30:52;72423.03;;;-142.66;30.97
11468;BME280;5790;42.762;23.430;2024-03-23T12:33:21;72406.69;;;-142.66;30.48
11468;BME280;5790;42.762;23.430;2024-03-23T12:35:47;72394.44;;;-142.66;29.80
11468;BME280;5790;42.762;23.430;2024-03-23T12:38:14;72384.25;;;-142.66;29.96
11468;BME280;5790;42.762;23.430;2024-03-23T12:40:40;72382.19;;;-142.66;29.03
11468;BME280;5790;42.762;23.430;2024-03-23T12:43:07;72376.06;;;-142.66;29.49
11468;BME280;5790;42.762;23.430;2024-03-23T12:45:33;72384.25;;;-142.66;29.07
11468;BME280;5790;42.762;23.430;2024-03-23T12:48:00;72376.06;;;-142.66;30.79
11468;BME280;5790;42.762;23.430;2024-03-23T12:50:28;72365.88;;;-142.66;30.99
11468;BME280;5790;42.762;23.430;2024-03-23T12:52:55;72347.50;;;-142.66;30.61
11468;BME280;5790;42.762;23.430;2024-03-23T12:55:21;72333.22;;;-142.66;29.78
11468;BME280;5790;42.762;23.430;2024-03-23T12:57:48;72320.97;;;-142.66;29.65
11468;BME280;5790;42.762;23.430;2024-03-23T13:00:14;72312.81;;;-142.66;29.17
11468;BME280;5790;42.762;23.430;2024-03-23T13:02:42;72314.84;;;-142.66;28.79
11468;BME280;5790;42.762;23.430;2024-03-23T13:05:08;72320.97;;;-142.66;29.16
11468;BME280;5790;42.762;23.430;2024-03-23T13:07:37;72308.72;;;-142.66;28.96
11468;BME280;5790;42.762;23.430;2024-03-23T13:10:05;72304.66;;;-142.66;29.47
11468;BME280;5790;42.762;23.430;2024-03-23T13:12:32;72290.38;;;-142.66;29.85
11468;BME280;5790;42.762;23.430;2024-03-23T13:14:58;72269.97;;;-142.66;28.70
11468;BME280;5790;42.762;23.430;2024-03-23T13:17:25;72267.91;;;-142.66;28.33
11468;BME280;5790;42.762;23.430;2024-03-23T13:19:52;72255.69;;;-142.66;28.68
11468;BME280;5790;42.762;23.430;2024-03-23T13:22:19;72247.50;;;-142.66;28.73
11468;BME280;5790;42.762;23.430;2024-03-23T13:24:47;72235.28;;;-142.66;28.20
11468;BME280;5790;42.762;23.430;2024-03-23T13:27:15;72227.09;;;-142.66;28.94
11468;BME280;5790;42.762;23.430;2024-03-23T13:29:41;72218.94;;;-142.66;28.22
11468;BME280;5790;42.762;23.430;2024-03-23T13:32:08;72218.94;;;-142.66;28.67
11468;BME280;5790;42.762;23.430;2024-03-23T13:34:34;72212.81;;;-142.66;27.98
11468;BME280;5790;42.762;23.430;2024-03-23T13:37:01;72200.56;;;-142.66;26.42